Terminal Aerodrome Forecast
Issued by NWS

Home | Current Version | Previous Version | Text Only | Print | Product List | Glossary Off
Versions: 1 2 3 4 5 6 7 8 9 10 11 12 13

905
FTUS42 KMHX 041756
TAFPGV
TAF
KPGV 041756Z 0418/0518 21009KT P6SM -RA BKN008 OVC015
     FM042000 02006KT 2SM -RA OVC007
     FM050000 03007G15KT 4SM -RA BR OVC005
     FM051200 34012G20KT P6SM -RA OVC020
     FM051500 34013G21KT P6SM BKN050
      AMD LTD TO CLD VIS AND WIND=

USA.gov is the U.S. government's official web portal to all federal, state and local government web resources and services.